Quick Links (Output Below):   Max & Min Temps   /   Climate Reports   /   Zone Forecasts
River Forecasts   /   Forestry Forecasts   /   Aviation Forecasts   /   Radars   /   Features

Terminal Aerodrome Forecast (Fort Smith)

Pick a Site:
Arkadelphia | El Dorado | Fayetteville | Fort Smith | Harrison | Highfill | Hot Springs | Jonesboro
Little Rock | Monticello | Mountain Home | Pine Bluff | Texarkana
 Forecast 

KFSM 280201Z 2802/2824 VRB06KT P6SM OVC050
      TEMPO 2802/2803 4SM -SN OVC025
     FM280300 VRB06KT P6SM OVC015
     FM281000 VRB06KT P6SM -SN OVC020
      TEMPO 2814/2818 4SM -SN OVC010=


 Latest METARs (Observations) 
How to Decode METARs
01Z KFSM 280053Z 06006KT 4SM -SN OVC050 M05/M08 A3053 RMK AO2 SNB2358
         SLP346 P0000 T10501083
         
00Z KFSM 272353Z 07007KT 9SM SCT014 SCT039 OVC060 M05/M08 A3052 RMK
         AO2 SNE52 SLP342 P0000 60007 T10501083 11039 21061 58003
         
***** Today's Observations (Above) *****


23Z KFSM 272253Z 08007KT 1 3/4SM -SN FEW012 BKN025 OVC033 M05/M08
         A3053 RMK AO2 SLP344 P0002 T10501078
         
22Z KFSM 272153Z 07008KT 1/2SM R25/3500V4500FT -SN FZFG VV013 M06/M08
         A3053 RMK AO2 SLP345 P0004 T10561078
         
21Z KFSM 272053Z 10004KT 2SM R25/4500V5500FT -SN OVC016 M06/M09 A3056
         RMK AO2 SNB00 SLP353 P0001 60001 T10611089 58008
         
20Z KFSM 271953Z 00000KT 10SM BKN038 BKN048 OVC055 M04/M15 A3057 RMK
         AO2 SLP359 T10441150
         
19Z KFSM 271853Z 00000KT 10SM OVC065 M04/M16 A3059 RMK AO2 SLP366
         T10441156
         
18Z KFSM 271753Z 06005KT 10SM OVC085 M04/M15 A3058 RMK AO2 SLP361
         T10441150 11044 21078 56003
         
17Z KFSM 271653Z 05007KT 10SM OVC100 M05/M16 A3059 RMK AO2 SLP366
         T10501156
         
16Z KFSM 271553Z 08011KT 10SM CLR M05/M16 A3057 RMK AO2 SLP359
         T10501156
         
***** Yesterday's Observations (Above) *****


Back to Main Page
http://www.srh.noaa.gov/lzk/qfcst.php

USA.gov is the U.S. government's official web portal to all federal, state and local government web resources and services.